Time;durP1;ratioP1;P1;durP2;ratioP2;P2;SDS_P1;SDS_P2;PMS_P1;PMS_P2;Temp;Humidity;BMP_temperature;BMP_pressure;BME280_temperature;BME280_humidity;BME280_pressure;Samples;Min_cycle;Max_cycle;Signal;HPM_P1;HPM_P2
2022/05/03 00:01:08;;;;;;;13.53;12.13;;;12.90;99.90;;;;;;5033217;28;20704;-69
2022/05/03 00:03:47;;;;;;;13.57;12.03;;;12.90;99.90;;;;;;5034151;28;20567;-69
2022/05/03 00:06:46;;;;;;;14.07;12.13;;;12.80;99.90;;;;;;5033852;28;20461;-68
2022/05/03 00:09:20;;;;;;;12.63;11.33;;;12.60;99.90;;;;;;5033437;28;20433;-68
2022/05/03 00:12:08;;;;;;;13.07;11.70;;;12.60;99.90;;;;;;5033496;28;20516;-69
2022/05/03 00:14:45;;;;;;;14.40;11.70;;;12.50;99.90;;;;;;5033693;28;20885;-69
2022/05/03 00:17:14;;;;;;;13.40;12.10;;;12.50;99.90;;;;;;5033482;28;20972;-69
2022/05/03 00:19:40;;;;;;;16.00;12.47;;;12.50;99.90;;;;;;5033696;28;20476;-68
2022/05/03 00:22:06;;;;;;;12.77;11.43;;;12.40;99.90;;;;;;5033262;28;20445;-69
2022/05/03 00:24:33;;;;;;;14.37;12.47;;;12.40;99.90;;;;;;5033058;28;20799;-69
2022/05/03 00:26:59;;;;;;;13.43;12.13;;;12.30;99.90;;;;;;5033072;28;20562;-69
2022/05/03 00:29:25;;;;;;;13.00;11.53;;;12.20;99.90;;;;;;5033335;28;20520;-69
2022/05/03 00:31:51;;;;;;;13.07;11.77;;;12.20;99.90;;;;;;5032835;28;20467;-70
2022/05/03 00:34:18;;;;;;;15.83;10.93;;;12.30;99.90;;;;;;5032388;28;20922;-68
2022/05/03 00:36:44;;;;;;;13.37;11.97;;;12.40;99.90;;;;;;5032142;28;20218;-66
2022/05/03 00:39:09;;;;;;;12.50;11.30;;;12.40;99.90;;;;;;5032092;28;20444;-67
2022/05/03 00:41:37;;;;;;;12.60;11.40;;;12.40;99.90;;;;;;5032735;28;20642;-69
2022/05/03 00:44:58;;;;;;;12.60;11.37;;;12.40;99.90;;;;;;5032628;28;20272;-68
2022/05/03 00:47:47;;;;;;;12.43;10.80;;;12.30;99.90;;;;;;5010538;28;20455;-69
2022/05/03 00:50:34;;;;;;;14.03;11.63;;;12.10;99.90;;;;;;4973044;28;20449;-69
2022/05/03 00:53:03;;;;;;;13.20;11.90;;;12.10;99.90;;;;;;4993582;28;20847;-68
2022/05/03 00:55:55;;;;;;;14.27;11.67;;;12.10;99.90;;;;;;5010194;28;20465;-68
2022/05/03 00:59:00;;;;;;;13.80;12.40;;;12.10;99.90;;;;;;5009646;28;20403;-69
2022/05/03 01:01:36;;;;;;;13.57;11.33;;;12.20;99.90;;;;;;5009915;28;20203;-69
2022/05/03 01:04:14;;;;;;;13.23;12.00;;;12.20;99.90;;;;;;5010179;28;20430;-69
2022/05/03 01:06:56;;;;;;;13.20;11.80;;;12.10;99.90;;;;;;5010256;28;20450;-68
2022/05/03 01:09:48;;;;;;;12.23;10.70;;;12.00;99.90;;;;;;5009695;28;20536;-69
2022/05/03 01:12:42;;;;;;;12.30;11.00;;;12.10;99.90;;;;;;5010138;28;20442;-68
2022/05/03 01:15:16;;;;;;;11.00;9.97;;;12.10;99.90;;;;;;5009794;28;20832;-69
2022/05/03 01:18:20;;;;;;;11.97;10.77;;;12.10;99.90;;;;;;5010158;28;20449;-69
2022/05/03 01:21:18;;;;;;;11.43;10.33;;;12.00;99.90;;;;;;5015268;28;20441;-67
2022/05/03 01:23:58;;;;;;;13.23;10.47;;;12.00;99.90;;;;;;5031585;28;20536;-69
2022/05/03 01:26:24;;;;;;;11.97;10.60;;;11.90;99.90;;;;;;5032438;28;20437;-68
2022/05/03 01:29:11;;;;;;;12.67;10.53;;;11.90;99.90;;;;;;5031556;28;20453;-68
2022/05/03 01:31:39;;;;;;;11.60;10.40;;;11.90;99.90;;;;;;5032490;28;20194;-68
2022/05/03 01:34:06;;;;;;;12.37;11.10;;;11.90;99.90;;;;;;5031455;28;20465;-70
2022/05/03 01:37:13;;;;;;;10.73;9.63;;;11.90;99.90;;;;;;5031864;28;20515;-69
2022/05/03 01:40:07;;;;;;;12.57;10.97;;;12.00;99.90;;;;;;5022338;28;20783;-70
2022/05/03 01:42:45;;;;;;;13.07;10.20;;;12.00;99.90;;;;;;5046154;28;20495;-69
2022/05/03 01:45:11;;;;;;;12.13;10.90;;;12.00;99.90;;;;;;5051030;28;20443;-69
2022/05/03 01:47:56;;;;;;;11.10;10.00;;;11.80;99.90;;;;;;5052513;28;20443;-69
2022/05/03 01:50:29;;;;;;;12.70;9.53;;;11.80;99.90;;;;;;5068130;28;20515;-69
2022/05/03 01:53:29;;;;;;;12.48;11.38;;;11.70;99.90;;;;;;5051871;28;20416;-70
2022/05/03 01:56:06;;;;;;;11.60;10.40;;;11.60;99.90;;;;;;5052697;28;20206;-69
2022/05/03 01:58:56;;;;;;;11.25;9.70;;;11.40;99.90;;;;;;5052571;28;20415;-69
2022/05/03 02:01:43;;;;;;;11.73;9.60;;;11.40;99.90;;;;;;5052285;28;20166;-70
2022/05/03 02:04:46;;;;;;;12.23;11.03;;;11.40;99.90;;;;;;5052379;28;20424;-68
2022/05/03 02:07:35;;;;;;;12.73;10.40;;;11.40;99.90;;;;;;5052668;28;20451;-68
2022/05/03 02:10:03;;;;;;;13.47;10.87;;;11.40;99.90;;;;;;5052121;28;20412;-70
2022/05/03 02:12:29;;;;;;;10.33;9.30;;;11.50;99.90;;;;;;5052649;28;20412;-70
2022/05/03 02:15:04;;;;;;;11.40;9.70;;;11.50;99.90;;;;;;5052550;28;20965;-69
2022/05/03 02:18:04;;;;;;;10.93;9.83;;;11.50;99.90;;;;;;5052418;28;20404;-70
2022/05/03 02:20:51;;;;;;;10.90;9.80;;;11.60;99.90;;;;;;5051928;28;20499;-69
2022/05/03 02:23:49;;;;;;;11.93;10.73;;;11.60;99.90;;;;;;5052137;28;20503;-69
2022/05/03 02:26:43;;;;;;;10.90;9.97;;;11.50;99.90;;;;;;5051260;28;20408;-70
2022/05/03 02:29:15;;;;;;;13.40;10.07;;;11.40;99.90;;;;;;5051821;28;20405;-69
2022/05/03 02:32:09;;;;;;;11.77;9.77;;;11.30;99.90;;;;;;5067554;28;20479;-70
2022/05/03 02:34:48;;;;;;;9.93;9.03;;;11.30;99.90;;;;;;5052057;28;20822;-69
2022/05/03 02:37:24;;;;;;;12.40;9.57;;;11.40;99.90;;;;;;5051650;28;20464;-69
2022/05/03 02:39:59;;;;;;;10.70;9.60;;;11.40;99.90;;;;;;5051730;28;20408;-68
2022/05/03 02:42:26;;;;;;;10.80;9.30;;;11.30;99.90;;;;;;5052059;28;20419;-69
2022/05/03 02:44:56;;;;;;;11.90;9.87;;;11.30;99.90;;;;;;5067184;28;20467;-69
2022/05/03 02:47:35;;;;;;;11.43;9.30;;;11.20;99.90;;;;;;5051933;28;20868;-68
2022/05/03 02:50:07;;;;;;;9.00;8.10;;;11.20;99.90;;;;;;5051567;28;20412;-69
2022/05/03 02:52:53;;;;;;;10.07;9.00;;;11.10;99.90;;;;;;5051933;28;20495;-68
2022/05/03 02:55:21;;;;;;;10.70;9.60;;;11.00;99.90;;;;;;5051756;28;20995;-70
2022/05/03 02:58:03;;;;;;;9.80;8.90;;;11.00;99.90;;;;;;5057629;28;20404;-71
2022/05/03 03:03:37;;;;;;;11.20;8.20;;;11.00;99.90;;;;;;5068161;28;20415;-68
2022/05/03 03:06:04;;;;;;;10.03;9.03;;;10.90;99.90;;;;;;5057412;28;20407;-68
2022/05/03 03:08:42;;;;;;;10.47;8.93;;;10.70;99.90;;;;;;5056257;28;20488;-69
2022/05/03 03:11:17;;;;;;;11.90;8.43;;;10.60;99.90;;;;;;5055889;28;20780;-69
2022/05/03 03:13:56;;;;;;;9.33;8.27;;;10.60;99.90;;;;;;5056135;28;20481;-69
2022/05/03 03:16:30;;;;;;;9.50;8.50;;;10.60;99.90;;;;;;5055836;28;20456;-68
2022/05/03 03:18:58;;;;;;;11.30;8.83;;;10.60;99.90;;;;;;5056477;28;20422;-70
2022/05/03 03:21:31;;;;;;;9.07;8.07;;;10.70;99.90;;;;;;5055995;28;20423;-69
2022/05/03 03:23:58;;;;;;;8.20;7.40;;;10.80;99.90;;;;;;5056735;28;20466;-69
2022/05/03 03:26:28;;;;;;;8.63;7.50;;;10.70;99.90;;;;;;5055547;28;20416;-68
2022/05/03 03:28:58;;;;;;;12.10;8.07;;;10.70;99.90;;;;;;5071349;28;20409;-70
2022/05/03 03:31:25;;;;;;;12.00;8.90;;;10.80;99.90;;;;;;5055131;28;20416;-69
2022/05/03 03:33:53;;;;;;;8.13;7.10;;;10.80;99.90;;;;;;5071302;22;20487;-71
2022/05/03 03:36:20;;;;;;;9.87;7.97;;;10.80;99.90;;;;;;5053918;28;20662;-71
2022/05/03 03:38:47;;;;;;;7.87;7.07;;;10.80;99.90;;;;;;5053513;28;20813;-70
2022/05/03 03:41:12;;;;;;;10.10;7.20;;;10.70;99.90;;;;;;5055011;28;20434;-71
2022/05/03 03:43:40;;;;;;;8.27;7.50;;;10.70;99.90;;;;;;5055145;28;20404;-71
2022/05/03 03:46:06;;;;;;;9.10;7.90;;;10.60;99.90;;;;;;5035184;28;20531;-71
2022/05/03 03:48:32;;;;;;;7.90;7.10;;;10.70;99.90;;;;;;5035528;28;20479;-71
2022/05/03 03:50:59;;;;;;;10.17;8.10;;;10.70;99.90;;;;;;5035930;28;20178;-71
2022/05/03 03:53:27;;;;;;;10.63;8.27;;;10.60;99.90;;;;;;5036064;28;20416;-71
2022/05/03 03:55:53;;;;;;;8.57;7.70;;;10.50;99.90;;;;;;5035346;28;20948;-70
2022/05/03 03:58:19;;;;;;;9.40;8.50;;;10.40;99.90;;;;;;5034238;28;20413;-71
2022/05/03 04:00:46;;;;;;;8.37;7.57;;;10.40;99.90;;;;;;5034704;28;20512;-71
2022/05/03 04:03:13;;;;;;;10.70;8.13;;;10.40;99.90;;;;;;5033476;28;20994;-71
2022/05/03 04:05:39;;;;;;;8.30;7.07;;;10.30;99.90;;;;;;5034362;28;20438;-71
2022/05/03 04:08:05;;;;;;;12.87;8.00;;;10.30;99.90;;;;;;5033829;28;20410;-71
2022/05/03 04:10:31;;;;;;;11.97;8.30;;;10.20;99.90;;;;;;5033013;28;20179;-71
2022/05/03 04:12:57;;;;;;;8.10;7.30;;;10.30;99.90;;;;;;5032796;28;20770;-71
2022/05/03 04:15:25;;;;;;;14.23;9.57;;;10.20;99.90;;;;;;5035272;28;20256;-71
2022/05/03 04:17:51;;;;;;;8.33;7.47;;;10.20;99.90;;;;;;5029992;28;20560;-70
2022/05/03 04:20:18;;;;;;;9.50;8.60;;;10.20;99.90;;;;;;5031917;28;20540;-71
2022/05/03 04:22:44;;;;;;;8.83;7.87;;;10.10;99.90;;;;;;5031743;28;20210;-70
2022/05/03 04:25:10;;;;;;;7.90;7.10;;;10.10;99.90;;;;;;5032289;28;20822;-70
2022/05/03 04:27:36;;;;;;;9.37;7.83;;;10.10;99.90;;;;;;5031040;28;20484;-71
2022/05/03 04:30:02;;;;;;;8.47;7.57;;;10.20;99.90;;;;;;5031650;28;20454;-70
2022/05/03 04:32:32;;;;;;;9.20;8.20;;;10.30;99.90;;;;;;5031777;28;20777;-71
2022/05/03 04:34:58;;;;;;;9.03;8.10;;;10.40;99.90;;;;;;5032191;28;21152;-71
2022/05/03 04:37:24;;;;;;;11.80;8.20;;;10.40;99.90;;;;;;5030947;28;20445;-72
2022/05/03 04:39:50;;;;;;;9.07;8.17;;;10.30;99.90;;;;;;5032942;28;20206;-73
2022/05/03 04:42:16;;;;;;;9.93;8.93;;;10.30;99.90;;;;;;5031709;28;20426;-74
2022/05/03 04:44:41;;;;;;;12.53;8.97;;;10.30;99.90;;;;;;5032633;28;20491;-72
2022/05/03 04:47:07;;;;;;;9.57;8.57;;;10.30;99.90;;;;;;5043710;28;20233;-72
2022/05/03 04:49:33;;;;;;;10.27;9.20;;;10.30;99.90;;;;;;5052323;28;20253;-72
2022/05/03 04:51:58;;;;;;;15.90;9.53;;;10.40;99.90;;;;;;5053358;28;20185;-74
2022/05/03 04:54:24;;;;;;;10.10;8.70;;;10.30;99.90;;;;;;5052464;28;20459;-72
2022/05/03 04:56:54;;;;;;;9.17;8.17;;;10.40;99.90;;;;;;5052458;28;20205;-71
2022/05/03 04:59:20;;;;;;;9.53;8.47;;;10.40;99.90;;;;;;5053109;28;20257;-72
2022/05/03 05:01:46;;;;;;;10.57;9.37;;;10.50;99.90;;;;;;5053591;28;20543;-71
2022/05/03 05:04:11;;;;;;;11.97;9.90;;;10.60;99.90;;;;;;5052183;28;20654;-72
2022/05/03 05:06:36;;;;;;;8.80;7.90;;;10.60;99.90;;;;;;5053275;28;20182;-71
2022/05/03 05:09:02;;;;;;;11.83;9.27;;;10.40;99.90;;;;;;5053502;28;20791;-72
2022/05/03 05:11:28;;;;;;;9.00;8.10;;;10.40;99.90;;;;;;5053368;28;20192;-72
2022/05/03 05:13:53;;;;;;;10.30;9.00;;;10.50;99.90;;;;;;5053167;28;20623;-72
2022/05/03 05:16:19;;;;;;;15.47;9.57;;;10.50;99.90;;;;;;5053249;28;20252;-72
2022/05/03 05:18:44;;;;;;;12.20;7.83;;;10.60;99.90;;;;;;5052985;28;20627;-72
2022/05/03 05:21:11;;;;;;;9.77;8.80;;;10.70;99.90;;;;;;5052882;28;20973;-72
2022/05/03 05:23:37;;;;;;;9.63;8.60;;;10.80;99.90;;;;;;5052077;28;20216;-72
2022/05/03 05:26:03;;;;;;;10.10;9.03;;;10.70;99.90;;;;;;5053777;28;20926;-72
2022/05/03 05:28:28;;;;;;;8.13;7.37;;;10.80;99.90;;;;;;5055033;28;20174;-72
2022/05/03 05:30:54;;;;;;;14.60;8.60;;;10.90;99.90;;;;;;5058564;28;20181;-71
2022/05/03 05:33:20;;;;;;;12.13;8.97;;;11.00;99.90;;;;;;5061407;28;20198;-71
2022/05/03 05:35:46;;;;;;;12.10;9.57;;;11.10;99.90;;;;;;5065142;28;20464;-73
2022/05/03 05:38:16;;;;;;;12.03;9.17;;;11.20;99.90;;;;;;5060867;28;20420;-71
2022/05/03 05:40:42;;;;;;;10.20;8.67;;;11.30;99.90;;;;;;5060203;28;20409;-72
2022/05/03 05:43:08;;;;;;;12.30;8.00;;;11.40;99.90;;;;;;5062077;28;20404;-72
2022/05/03 05:45:33;;;;;;;9.40;8.07;;;11.40;99.90;;;;;;5061886;28;20454;-72
2022/05/03 05:47:59;;;;;;;12.97;8.30;;;11.50;99.90;;;;;;5060693;28;20166;-72
2022/05/03 05:50:25;;;;;;;10.67;8.67;;;11.50;99.90;;;;;;5037770;28;20249;-71
2022/05/03 05:55:36;;;;;;;20.00;9.50;;;11.60;99.90;;;;;;5031215;28;20389;-71
2022/05/03 05:58:03;;;;;;;9.70;8.43;;;11.60;99.90;;;;;;5031070;28;20441;-72
2022/05/03 06:00:29;;;;;;;10.95;9.93;;;11.60;99.90;;;;;;5026619;28;20433;-73
2022/05/03 06:02:55;;;;;;;12.97;9.90;;;11.70;99.90;;;;;;5031082;28;20222;-72
2022/05/03 06:05:21;;;;;;;12.93;8.97;;;11.80;99.90;;;;;;5029634;28;21007;-71
2022/05/03 06:07:46;;;;;;;11.53;8.80;;;11.80;99.70;;;;;;5030957;28;20933;-72
2022/05/03 06:10:12;;;;;;;9.70;8.70;;;11.90;99.40;;;;;;5030490;28;20218;-72
2022/05/03 06:12:37;;;;;;;10.13;8.03;;;12.00;99.20;;;;;;5030072;28;20203;-72
2022/05/03 06:15:03;;;;;;;9.10;7.20;;;12.10;98.80;;;;;;5030469;28;20205;-71
2022/05/03 06:17:29;;;;;;;13.40;8.00;;;12.10;98.40;;;;;;5030461;28;20194;-71
2022/05/03 06:19:55;;;;;;;14.63;8.00;;;12.20;98.10;;;;;;5028746;28;20441;-72
2022/05/03 06:22:20;;;;;;;10.30;8.20;;;12.20;97.60;;;;;;5030009;28;20456;-72
2022/05/03 06:24:47;;;;;;;9.53;7.77;;;12.30;97.40;;;;;;5029947;28;20202;-72
2022/05/03 06:27:14;;;;;;;9.50;7.60;;;12.20;97.20;;;;;;5028656;28;20202;-72
2022/05/03 06:29:41;;;;;;;9.27;8.30;;;12.30;97.00;;;;;;5030492;28;20516;-72
2022/05/03 06:32:08;;;;;;;9.43;7.67;;;12.40;96.80;;;;;;5029801;28;20634;-72
2022/05/03 06:34:33;;;;;;;9.40;8.10;;;12.40;96.70;;;;;;5029997;28;20835;-73
2022/05/03 06:36:59;;;;;;;7.70;6.90;;;12.50;96.50;;;;;;5031079;28;20492;-72
2022/05/03 06:39:24;;;;;;;7.53;6.83;;;12.50;96.40;;;;;;5030238;28;20203;-72
2022/05/03 06:41:50;;;;;;;9.93;7.30;;;12.30;95.90;;;;;;5030439;28;20210;-72
2022/05/03 06:44:16;;;;;;;8.87;7.67;;;12.40;96.10;;;;;;5030325;28;20658;-73
2022/05/03 06:46:41;;;;;;;7.83;7.03;;;12.50;96.10;;;;;;5030462;28;20210;-72
2022/05/03 06:49:10;;;;;;;9.47;6.93;;;12.60;96.00;;;;;;5029685;28;20867;-72
2022/05/03 06:51:36;;;;;;;9.90;7.17;;;12.60;95.80;;;;;;5031063;28;20226;-72
2022/05/03 06:54:02;;;;;;;6.70;6.00;;;12.50;95.50;;;;;;5030801;28;21132;-73
2022/05/03 06:56:28;;;;;;;7.70;6.93;;;12.50;95.40;;;;;;5030897;28;20222;-73
2022/05/03 06:58:53;;;;;;;6.83;6.23;;;12.40;95.40;;;;;;5029440;28;20203;-71
2022/05/03 07:01:19;;;;;;;7.90;6.27;;;12.40;95.40;;;;;;5030355;28;20541;-71
2022/05/03 07:03:44;;;;;;;6.37;5.77;;;12.30;95.60;;;;;;5028062;28;20215;-73
2022/05/03 07:06:10;;;;;;;7.27;6.60;;;12.30;95.70;;;;;;5030022;28;20207;-71
2022/05/03 07:08:36;;;;;;;8.70;7.17;;;12.20;95.80;;;;;;5030110;28;20230;-73
2022/05/03 07:11:02;;;;;;;7.40;6.70;;;12.30;95.90;;;;;;5030371;28;20201;-72
2022/05/03 07:13:28;;;;;;;8.77;6.43;;;12.40;95.90;;;;;;5030463;28;20215;-73
2022/05/03 07:15:55;;;;;;;6.97;6.27;;;12.50;95.90;;;;;;5030403;28;20476;-72
2022/05/03 07:23:51;;;;;;;6.63;5.63;;;12.60;95.60;;;;;;5031231;28;20463;-72
2022/05/03 07:26:17;;;;;;;7.20;6.50;;;12.60;95.60;;;;;;5030955;28;20925;-72
2022/05/03 07:28:42;;;;;;;6.50;5.73;;;12.70;95.40;;;;;;5031322;28;20413;-72
2022/05/03 07:31:11;;;;;;;8.53;6.57;;;12.60;95.40;;;;;;5030682;28;20820;-72
2022/05/03 07:33:37;;;;;;;6.90;5.67;;;12.60;95.60;;;;;;5030888;28;20221;-72
2022/05/03 07:36:03;;;;;;;7.33;6.50;;;12.70;95.30;;;;;;5030445;28;20552;-73
2022/05/03 07:38:29;;;;;;;7.83;6.73;;;12.70;95.50;;;;;;5031120;28;20264;-73
2022/05/03 07:40:56;;;;;;;8.20;7.40;;;12.90;95.50;;;;;;5030594;28;20429;-72
2022/05/03 07:43:22;;;;;;;6.93;6.23;;;13.10;95.30;;;;;;5034192;28;20167;-73
2022/05/03 07:45:48;;;;;;;7.17;6.30;;;13.20;95.00;;;;;;5034881;28;20825;-72
2022/05/03 07:48:13;;;;;;;6.73;6.07;;;13.20;95.00;;;;;;5034483;28;20436;-73
2022/05/03 07:50:39;;;;;;;7.23;6.63;;;13.30;95.10;;;;;;5034704;28;20182;-73
2022/05/03 07:53:04;;;;;;;8.40;6.60;;;13.40;94.90;;;;;;5033505;28;20194;-73
2022/05/03 07:55:30;;;;;;;8.33;6.80;;;13.40;94.50;;;;;;5034447;28;20198;-74
2022/05/03 07:57:55;;;;;;;6.80;6.10;;;13.40;94.20;;;;;;5034681;28;20605;-72
2022/05/03 08:00:21;;;;;;;7.53;5.60;;;13.50;94.30;;;;;;5034344;28;20269;-72
2022/05/03 08:02:46;;;;;;;8.97;6.70;;;13.60;93.80;;;;;;5034610;28;20205;-71
2022/05/03 08:05:12;;;;;;;7.30;6.63;;;13.60;93.30;;;;;;5034572;28;20195;-72
2022/05/03 08:07:38;;;;;;;7.30;6.57;;;13.60;93.20;;;;;;5033470;28;20645;-72
2022/05/03 08:10:04;;;;;;;6.80;5.93;;;13.70;93.20;;;;;;5034145;28;20177;-72
2022/05/03 08:12:30;;;;;;;7.33;6.63;;;13.70;93.20;;;;;;5034277;28;20478;-72
2022/05/03 08:14:56;;;;;;;8.73;6.73;;;13.80;93.20;;;;;;5034667;28;20433;-72
2022/05/03 08:17:24;;;;;;;10.37;6.87;;;13.90;93.60;;;;;;5035503;28;20253;-72
2022/05/03 08:19:49;;;;;;;8.20;7.40;;;14.00;93.60;;;;;;5033866;28;20428;-72
2022/05/03 08:22:15;;;;;;;8.07;7.27;;;14.10;93.50;;;;;;5034036;28;20913;-73
2022/05/03 08:24:40;;;;;;;8.30;7.50;;;14.20;93.40;;;;;;5034030;28;20202;-75
2022/05/03 08:27:06;;;;;;;10.20;7.17;;;14.30;93.30;;;;;;5034050;28;20183;-72
2022/05/03 08:29:38;;;;;;;9.10;6.77;;;14.40;92.50;;;;;;5033816;28;20557;-74
2022/05/03 08:32:04;;;;;;;7.83;7.13;;;14.30;92.20;;;;;;5033849;28;20496;-73
2022/05/03 08:34:31;;;;;;;8.27;6.87;;;14.30;92.00;;;;;;5032913;28;20876;-72
2022/05/03 08:42:27;;;;;;;6.23;5.63;;;14.40;91.10;;;;;;5033937;28;20480;-73
2022/05/03 08:44:53;;;;;;;11.00;6.37;;;14.50;90.80;;;;;;5033435;28;20430;-73
2022/05/03 08:47:19;;;;;;;10.13;6.13;;;14.60;90.90;;;;;;5033485;28;20532;-72
2022/05/03 08:50:11;;;;;;;6.60;5.93;;;14.80;91.00;;;;;;5033469;28;20187;-72
2022/05/03 08:53:03;;;;;;;8.53;6.27;;;14.80;89.70;;;;;;5033592;28;20414;-71
2022/05/03 08:55:29;;;;;;;7.03;5.27;;;14.90;90.00;;;;;;5032246;28;20565;-71
2022/05/03 08:57:55;;;;;;;5.90;5.30;;;14.90;88.50;;;;;;5033465;28;20410;-72
2022/05/03 09:00:21;;;;;;;6.33;5.53;;;15.00;89.10;;;;;;5032944;28;20910;-72
2022/05/03 09:02:54;;;;;;;5.80;5.30;;;15.20;88.70;;;;;;5033305;28;20417;-72
2022/05/03 09:05:21;;;;;;;8.50;6.00;;;15.20;86.00;;;;;;5032416;28;20405;-73
2022/05/03 09:07:49;;;;;;;6.17;5.53;;;15.40;86.40;;;;;;5033369;28;20187;-72
2022/05/03 09:10:19;;;;;;;5.63;5.13;;;15.40;85.30;;;;;;5032853;28;20410;-73
2022/05/03 09:12:45;;;;;;;10.02;6.05;;;15.40;86.10;;;;;;5030534;28;20397;-73
2022/05/03 09:15:12;;;;;;;5.13;4.63;;;15.60;85.00;;;;;;5033032;28;20191;-71
2022/05/03 09:17:45;;;;;;;7.83;5.30;;;15.80;83.90;;;;;;5032943;28;20436;-72
2022/05/03 09:26:13;;;;;;;5.23;4.60;;;15.90;82.90;;;;;;5033248;28;20514;-74
2022/05/03 09:28:49;;;;;;;6.20;5.33;;;16.00;83.80;;;;;;5032755;28;20417;-73
2022/05/03 09:31:27;;;;;;;5.77;4.70;;;16.00;83.00;;;;;;5032898;28;20487;-73
2022/05/03 09:33:53;;;;;;;7.60;5.30;;;16.10;82.30;;;;;;5032914;28;20397;-73
2022/05/03 09:36:20;;;;;;;5.00;4.60;;;16.20;82.00;;;;;;5032664;28;20477;-71
2022/05/03 09:38:53;;;;;;;5.57;4.93;;;16.10;80.50;;;;;;5031312;28;20427;-72
2022/05/03 09:41:18;;;;;;;8.47;5.67;;;16.10;81.50;;;;;;5032692;28;20705;-71
2022/05/03 09:44:08;;;;;;;5.00;4.50;;;16.40;81.40;;;;;;5032377;28;20414;-73
2022/05/03 09:46:53;;;;;;;10.97;4.30;;;16.50;80.50;;;;;;5033036;28;20177;-73
2022/05/03 09:49:20;;;;;;;4.83;3.87;;;16.70;79.10;;;;;;5032337;28;20422;-73
2022/05/03 09:51:48;;;;;;;5.10;4.60;;;16.80;78.20;;;;;;5032696;28;20444;-72
2022/05/03 09:54:14;;;;;;;5.20;4.70;;;16.80;76.80;;;;;;5032369;28;20498;-73
2022/05/03 09:56:42;;;;;;;9.80;5.07;;;16.80;76.60;;;;;;5032445;28;20464;-73
2022/05/03 09:59:09;;;;;;;5.70;5.20;;;16.70;76.50;;;;;;5030020;28;20833;-73
2022/05/03 10:01:35;;;;;;;7.23;5.47;;;16.70;76.60;;;;;;5032493;28;20233;-73
2022/05/03 10:04:05;;;;;;;5.90;4.63;;;16.60;77.00;;;;;;5032040;28;20894;-73
2022/05/03 10:06:32;;;;;;;5.87;5.00;;;16.70;78.20;;;;;;5031206;28;20933;-73
2022/05/03 10:08:58;;;;;;;6.53;5.87;;;17.00;78.70;;;;;;5032061;28;20433;-73
2022/05/03 10:11:26;;;;;;;6.33;5.73;;;17.10;77.50;;;;;;5031851;28;20945;-73
2022/05/03 10:13:53;;;;;;;6.17;5.63;;;17.10;77.50;;;;;;5032304;28;20406;-74
2022/05/03 10:21:56;;;;;;;6.07;4.90;;;17.00;79.60;;;;;;5032755;28;20685;-74
2022/05/03 10:24:22;;;;;;;3.93;3.53;;;17.20;82.90;;;;;;5030654;28;20521;-73
2022/05/03 10:27:02;;;;;;;14.87;11.27;;;17.50;84.50;;;;;;5032121;28;20504;-73
2022/05/03 10:29:36;;;;;;;6.30;5.40;;;17.60;79.30;;;;;;5031693;28;20990;-74
2022/05/03 10:32:08;;;;;;;6.37;5.77;;;17.80;80.60;;;;;;5035718;28;20436;-74
2022/05/03 10:34:43;;;;;;;9.17;5.50;;;17.80;75.80;;;;;;5032517;28;20445;-73
2022/05/03 10:37:13;;;;;;;7.43;6.67;;;17.80;77.30;;;;;;5030497;28;20487;-73
2022/05/03 10:39:57;;;;;;;13.67;6.93;;;17.60;76.20;;;;;;5031789;28;20406;-73
2022/05/03 10:42:24;;;;;;;6.60;6.00;;;17.50;76.80;;;;;;5024744;28;20438;-73
2022/05/03 10:45:14;;;;;;;7.63;6.83;;;17.70;81.30;;;;;;5026345;28;20435;-72
2022/05/03 10:47:59;;;;;;;10.07;6.40;;;17.90;77.90;;;;;;5026762;28;20779;-72
2022/05/03 10:50:34;;;;;;;6.63;6.03;;;17.50;74.80;;;;;;5010884;28;20510;-71
2022/05/03 10:53:01;;;;;;;7.63;6.97;;;17.40;75.20;;;;;;5011081;28;20417;-72
2022/05/03 10:55:31;;;;;;;7.63;6.83;;;17.30;75.00;;;;;;5023358;28;21241;-73
2022/05/03 10:58:17;;;;;;;8.20;6.80;;;17.30;75.60;;;;;;5030948;28;20449;-72
2022/05/03 11:01:11;;;;;;;7.73;7.00;;;17.30;75.30;;;;;;5014945;28;20788;-73
2022/05/03 11:03:51;;;;;;;5.60;5.10;;;17.30;74.40;;;;;;5011679;28;20982;-72
2022/05/03 11:06:20;;;;;;;6.13;5.63;;;17.20;74.80;;;;;;5011051;28;20434;-72
2022/05/03 11:11:37;;;;;;;8.37;5.03;;;17.10;75.10;;;;;;5012580;28;20528;-71
2022/05/03 11:14:34;;;;;;;6.10;5.60;;;17.20;74.90;;;;;;5010670;28;20563;-72
2022/05/03 11:17:05;;;;;;;6.87;5.23;;;17.20;74.00;;;;;;5012117;28;20466;-73
2022/05/03 11:19:32;;;;;;;6.57;5.90;;;17.20;74.40;;;;;;5015467;28;20441;-73
2022/05/03 11:21:58;;;;;;;7.30;6.00;;;17.30;75.10;;;;;;5015583;28;20414;-72
2022/05/03 11:24:32;;;;;;;10.13;5.97;;;17.30;73.80;;;;;;5014355;28;20444;-73
2022/05/03 11:27:03;;;;;;;9.20;6.40;;;17.40;73.90;;;;;;5015727;28;20918;-73
2022/05/03 11:29:34;;;;;;;7.27;6.10;;;17.50;73.40;;;;;;5015200;28;20418;-75
2022/05/03 11:32:01;;;;;;;7.30;6.60;;;17.40;73.40;;;;;;5015835;28;20433;-73
2022/05/03 11:34:27;;;;;;;8.97;6.47;;;17.50;74.30;;;;;;5015140;28;20956;-72
2022/05/03 11:36:53;;;;;;;6.00;5.50;;;17.40;73.40;;;;;;5014595;28;20466;-73
2022/05/03 11:39:20;;;;;;;7.67;6.97;;;17.30;72.60;;;;;;5015038;28;20497;-73
2022/05/03 11:41:47;;;;;;;7.17;6.47;;;17.20;72.20;;;;;;5014664;28;20488;-73
2022/05/03 11:44:13;;;;;;;8.13;6.80;;;17.10;72.40;;;;;;5021052;28;20821;-73
2022/05/03 11:46:41;;;;;;;7.90;7.00;;;17.20;72.90;;;;;;5031332;28;20459;-73
2022/05/03 11:49:09;;;;;;;7.33;6.80;;;17.20;72.50;;;;;;5027354;28;20460;-72
2022/05/03 11:57:36;;;;;;;8.17;7.37;;;17.10;71.80;;;;;;5012425;28;20480;-73
2022/05/03 12:00:05;;;;;;;9.17;8.37;;;17.10;72.40;;;;;;5021756;28;20465;-72
2022/05/03 12:02:33;;;;;;;8.57;7.57;;;17.10;72.50;;;;;;5029243;28;20449;-73
2022/05/03 12:05:05;;;;;;;7.47;6.77;;;17.20;71.70;;;;;;5028992;28;20479;-72
2022/05/03 12:07:42;;;;;;;7.70;6.80;;;17.10;71.60;;;;;;5026897;28;21024;-72
2022/05/03 12:10:19;;;;;;;8.70;7.80;;;17.30;72.00;;;;;;5028912;28;20488;-72
2022/05/03 12:13:03;;;;;;;9.70;8.70;;;17.40;71.70;;;;;;5029009;28;21100;-71
2022/05/03 12:15:29;;;;;;;8.90;8.10;;;17.40;71.00;;;;;;5028535;28;20453;-73
2022/05/03 12:17:59;;;;;;;8.17;7.40;;;17.50;71.20;;;;;;5027862;28;20446;-72
2022/05/03 12:20:26;;;;;;;8.98;7.47;;;17.60;71.90;;;;;;5027824;28;20429;-72
2022/05/03 12:23:11;;;;;;;9.67;7.90;;;17.70;72.10;;;;;;5028502;28;20496;-72
2022/05/03 12:25:37;;;;;;;7.70;6.90;;;17.60;71.90;;;;;;5028936;28;20645;-72
2022/05/03 12:28:04;;;;;;;8.47;7.60;;;17.60;72.00;;;;;;5028702;28;20433;-72
2022/05/03 12:30:31;;;;;;;8.13;7.33;;;17.60;71.30;;;;;;5026877;28;20450;-72
2022/05/03 12:33:07;;;;;;;7.90;7.20;;;17.50;70.10;;;;;;5028907;28;20487;-72
2022/05/03 12:35:39;;;;;;;7.93;7.13;;;17.50;70.90;;;;;;5036551;28;20461;-70
2022/05/03 12:38:15;;;;;;;8.40;7.27;;;17.60;70.80;;;;;;5047009;28;20440;-72
2022/05/03 12:40:58;;;;;;;7.50;6.80;;;17.70;71.10;;;;;;5048067;28;20910;-73
2022/05/03 12:43:27;;;;;;;6.67;6.10;;;17.80;71.40;;;;;;5048510;28;20429;-72
2022/05/03 12:46:01;;;;;;;7.60;6.83;;;17.90;72.10;;;;;;5048454;28;20436;-72
2022/05/03 12:48:29;;;;;;;8.07;7.27;;;17.90;70.70;;;;;;5048534;28;20438;-72
2022/05/03 12:50:56;;;;;;;8.13;7.43;;;18.00;70.60;;;;;;5047856;28;20433;-74
2022/05/03 12:53:30;;;;;;;12.77;8.60;;;17.80;70.30;;;;;;5048061;28;20429;-73
2022/05/03 12:58:21;;;;;;;8.33;7.20;;;17.80;70.70;;;;;;5027664;28;20473;-72
2022/05/03 12:58:44;;;;;;;7.43;6.57;;;17.70;71.50;;;;;;5012774;28;20433;-73
2022/05/03 13:01:11;;;;;;;7.30;6.60;;;17.80;71.90;;;;;;5028048;28;20492;-73
2022/05/03 13:03:39;;;;;;;9.17;7.47;;;17.80;70.20;;;;;;5028637;28;20717;-72
2022/05/03 13:06:05;;;;;;;7.57;6.87;;;17.80;68.90;;;;;;5028511;28;20438;-73
2022/05/03 13:08:31;;;;;;;7.00;6.07;;;17.80;69.40;;;;;;5028188;28;20448;-72
2022/05/03 13:10:57;;;;;;;8.33;7.53;;;17.90;70.10;;;;;;5029561;28;20186;-72
2022/05/03 13:13:24;;;;;;;7.07;6.40;;;18.00;69.20;;;;;;5029586;28;20175;-72
2022/05/03 13:15:51;;;;;;;8.00;6.90;;;18.10;69.20;;;;;;5028261;28;20564;-72
2022/05/03 13:18:17;;;;;;;8.57;7.77;;;18.10;67.40;;;;;;5030170;28;20467;-72
2022/05/03 13:20:43;;;;;;;8.40;7.10;;;18.10;67.60;;;;;;5029075;28;20417;-72
2022/05/03 13:23:10;;;;;;;9.90;6.50;;;18.10;68.30;;;;;;5029849;28;20441;-72
2022/05/03 13:25:35;;;;;;;8.60;7.70;;;18.30;68.50;;;;;;5029952;28;20504;-71
2022/05/03 13:28:01;;;;;;;8.10;7.40;;;18.40;68.60;;;;;;5029229;28;20952;-70
2022/05/03 13:30:27;;;;;;;7.90;7.07;;;18.50;68.70;;;;;;5029751;28;20650;-71
2022/05/03 13:32:53;;;;;;;8.37;7.57;;;18.60;68.50;;;;;;5029616;28;20316;-71
2022/05/03 13:40:28;;;;;;;8.90;7.97;;;18.70;68.40;;;;;;5028182;28;20222;-72
2022/05/03 13:40:48;;;;;;;10.00;7.40;;;18.90;67.50;;;;;;5029910;28;20468;-71